Time;durP1;ratioP1;P1;durP2;ratioP2;P2;SDS_P1;SDS_P2;PMS_P1;PMS_P2;Temp;Humidity;BMP_temperature;BMP_pressure;BME280_temperature;BME280_humidity;BME280_pressure;Samples;Min_cycle;Max_cycle;Signal;HPM_P1;HPM_P2
2021/12/17 00:01:05;;;;;;;45.90;15.18;;;9.30;99.90;;;;;;4889946;29;20040;-73
2021/12/17 00:03:42;;;;;;;44.30;14.40;;;9.30;99.90;;;;;;4888941;29;20027;-73
2021/12/17 00:08:42;;;;;;;43.03;14.93;;;9.20;99.90;;;;;;4888879;29;20040;-73
2021/12/17 00:11:10;;;;;;;34.60;12.13;;;9.20;99.90;;;;;;4887450;29;20044;-74
2021/12/17 00:13:38;;;;;;;42.90;14.35;;;9.20;99.90;;;;;;4915186;29;20043;-73
2021/12/17 00:16:13;;;;;;;43.15;15.77;;;9.20;99.90;;;;;;4889563;29;20043;-73
2021/12/17 00:18:55;;;;;;;50.67;16.98;;;9.20;99.90;;;;;;4857372;29;20048;-74
2021/12/17 00:48:43;;;;;;;53.55;15.48;;;9.30;99.90;;;;;;4872299;29;20045;-74
2021/12/17 00:54:24;;;;;;;51.42;16.75;;;9.30;99.90;;;;;;4904096;29;20498;-73
2021/12/17 00:56:53;;;;;;;68.28;18.20;;;9.30;99.90;;;;;;4884511;29;20036;-74
2021/12/17 00:59:20;;;;;;;57.85;16.42;;;9.30;99.90;;;;;;4908426;29;20376;-73
2021/12/17 01:01:47;;;;;;;57.05;17.08;;;9.30;99.90;;;;;;4889394;29;20527;-74
2021/12/17 01:04:16;;;;;;;65.50;20.85;;;9.30;99.90;;;;;;4875688;29;20047;-73
2021/12/17 01:06:43;;;;;;;66.75;18.35;;;9.30;99.90;;;;;;4882589;29;20048;-73
2021/12/17 01:09:14;;;;;;;64.45;17.88;;;9.20;99.90;;;;;;4868248;29;20032;-73
2021/12/17 01:11:41;;;;;;;61.97;17.38;;;9.20;99.90;;;;;;4886316;29;20036;-74
2021/12/17 01:14:20;;;;;;;56.17;16.48;;;9.20;99.90;;;;;;4911870;29;20514;-73
2021/12/17 01:16:51;;;;;;;55.03;15.50;;;9.20;99.90;;;;;;4882032;29;20043;-73
2021/12/17 01:25:47;;;;;;;57.28;14.82;;;9.20;99.90;;;;;;4881013;29;20487;-73
2021/12/17 01:42:27;;;;;;;36.88;12.50;;;9.10;99.90;;;;;;4875102;29;20061;-73
2021/12/17 01:44:54;;;;;;;33.00;11.48;;;9.00;99.90;;;;;;4884047;29;20067;-73
2021/12/17 01:47:20;;;;;;;40.83;12.07;;;9.00;99.90;;;;;;4903020;29;20401;-73
2021/12/17 02:00:44;;;;;;;39.85;11.38;;;9.00;99.90;;;;;;4893725;29;20033;-73
2021/12/17 02:03:12;;;;;;;54.28;12.98;;;9.00;99.90;;;;;;4857739;29;20035;-73
2021/12/17 02:05:40;;;;;;;44.63;11.82;;;9.00;99.90;;;;;;4882736;29;20036;-74
2021/12/17 02:08:06;;;;;;;42.25;12.23;;;9.00;99.90;;;;;;4855909;29;20063;-74
2021/12/17 02:22:27;;;;;;;33.58;11.15;;;9.00;99.90;;;;;;4910267;29;20066;-74
2021/12/17 02:32:34;;;;;;;29.33;10.93;;;9.00;99.90;;;;;;4873720;29;20047;-74
2021/12/17 02:37:49;;;;;;;34.85;11.00;;;9.00;99.90;;;;;;4887545;29;20138;-74
2021/12/17 02:46:24;;;;;;;33.10;10.75;;;9.00;99.90;;;;;;4884319;29;20040;-74
2021/12/17 02:48:51;;;;;;;39.63;11.90;;;9.00;99.90;;;;;;4899244;29;20515;-74
2021/12/17 02:51:21;;;;;;;31.75;11.40;;;9.00;99.90;;;;;;4867221;29;20481;-74
2021/12/17 02:53:50;;;;;;;35.92;12.23;;;9.00;99.90;;;;;;4880529;29;20040;-74
2021/12/17 02:56:16;;;;;;;28.73;9.65;;;9.00;99.90;;;;;;4881752;29;20040;-74
2021/12/17 02:58:43;;;;;;;33.15;10.50;;;9.00;99.90;;;;;;4848839;29;20420;-74
2021/12/17 03:01:12;;;;;;;34.83;11.02;;;9.00;99.90;;;;;;4865682;29;20214;-74
2021/12/17 03:03:43;;;;;;;31.23;10.98;;;9.00;99.90;;;;;;4868211;29;20040;-74
2021/12/17 03:06:10;;;;;;;35.25;10.52;;;9.00;99.90;;;;;;4898361;29;20041;-74
2021/12/17 03:08:37;;;;;;;33.35;10.68;;;9.00;99.90;;;;;;4867058;29;20044;-74
2021/12/17 03:11:04;;;;;;;39.67;10.73;;;9.00;99.90;;;;;;4880230;29;20048;-74
2021/12/17 03:13:33;;;;;;;34.30;11.15;;;9.00;99.90;;;;;;4848754;29;20049;-74
2021/12/17 03:16:12;;;;;;;28.77;8.95;;;9.00;99.90;;;;;;4881142;29;20389;-74
2021/12/17 03:19:01;;;;;;;31.00;10.13;;;9.00;99.90;;;;;;4894586;29;20040;-74
2021/12/17 03:24:18;;;;;;;34.75;10.82;;;9.00;99.90;;;;;;4879484;29;20056;-74
2021/12/17 03:26:46;;;;;;;39.30;10.88;;;9.00;99.90;;;;;;4869120;29;20482;-74
2021/12/17 03:29:13;;;;;;;36.15;11.43;;;9.00;99.90;;;;;;4863558;29;20040;-74
2021/12/17 03:31:44;;;;;;;33.53;10.23;;;9.00;99.90;;;;;;4852369;29;20057;-74
2021/12/17 03:34:17;;;;;;;38.65;10.57;;;9.00;99.90;;;;;;4866878;29;20045;-74
2021/12/17 03:36:47;;;;;;;37.63;10.32;;;9.00;99.90;;;;;;4863622;29;20396;-73
2021/12/17 03:39:15;;;;;;;38.10;10.75;;;9.00;99.90;;;;;;4878421;29;20043;-74
2021/12/17 03:41:49;;;;;;;38.75;10.52;;;9.10;99.90;;;;;;4868027;29;20048;-74
2021/12/17 03:44:18;;;;;;;32.72;9.95;;;9.10;99.90;;;;;;4872721;29;20044;-74
2021/12/17 03:47:01;;;;;;;38.53;12.15;;;9.10;99.90;;;;;;4869029;29;20108;-74
2021/12/17 03:49:33;;;;;;;37.35;11.63;;;9.10;99.90;;;;;;4878750;29;20047;-74
2021/12/17 03:52:05;;;;;;;39.45;11.40;;;9.10;99.90;;;;;;4865467;29;20044;-74
2021/12/17 03:54:36;;;;;;;34.90;11.32;;;9.10;99.90;;;;;;4883869;29;20586;-74
2021/12/17 03:57:08;;;;;;;33.92;10.52;;;9.00;99.90;;;;;;4850767;29;20048;-74
2021/12/17 03:59:36;;;;;;;39.85;10.57;;;9.10;99.90;;;;;;4878967;29;20036;-73
2021/12/17 04:02:04;;;;;;;43.80;10.75;;;9.00;99.90;;;;;;4865878;29;20052;-74
2021/12/17 04:04:30;;;;;;;42.80;11.63;;;9.00;99.90;;;;;;4866349;29;20068;-74
2021/12/17 04:07:15;;;;;;;46.30;11.02;;;9.00;99.90;;;;;;4871063;29;20044;-74
2021/12/17 04:10:06;;;;;;;35.10;11.13;;;9.00;99.90;;;;;;4838712;29;20052;-74
2021/12/17 04:12:59;;;;;;;38.30;11.07;;;9.00;99.90;;;;;;4879104;29;20055;-74
2021/12/17 04:15:30;;;;;;;36.45;11.27;;;9.00;99.90;;;;;;4863107;29;20033;-73
2021/12/17 04:17:58;;;;;;;32.78;10.10;;;9.00;99.90;;;;;;4866467;29;20052;-74
2021/12/17 04:20:25;;;;;;;43.30;11.48;;;9.00;99.90;;;;;;4862849;29;20028;-73
2021/12/17 04:22:52;;;;;;;38.25;11.23;;;9.00;99.90;;;;;;4864965;29;20131;-74
2021/12/17 04:25:19;;;;;;;44.72;11.45;;;9.00;99.90;;;;;;4850947;29;20052;-74
2021/12/17 04:27:45;;;;;;;42.30;11.68;;;9.00;99.90;;;;;;4864539;29;20408;-74
2021/12/17 04:30:12;;;;;;;37.42;10.60;;;9.00;99.90;;;;;;4877915;29;20119;-74
2021/12/17 04:32:38;;;;;;;38.55;10.80;;;9.00;99.90;;;;;;4824384;29;20508;-74
2021/12/17 04:35:06;;;;;;;38.53;12.10;;;9.00;99.90;;;;;;4852796;29;20388;-74
2021/12/17 04:37:40;;;;;;;39.17;11.82;;;9.00;99.90;;;;;;4870508;29;20488;-74
2021/12/17 04:40:08;;;;;;;35.10;10.30;;;9.00;99.90;;;;;;4867106;29;20040;-74
2021/12/17 04:43:14;;;;;;;36.03;10.75;;;9.00;99.90;;;;;;4861347;29;20061;-74
2021/12/17 04:45:50;;;;;;;27.63;9.07;;;9.00;99.90;;;;;;4842728;29;20396;-73
2021/12/17 04:59:31;;;;;;;43.72;10.25;;;9.00;99.90;;;;;;4849175;29;20053;-73
2021/12/17 05:02:02;;;;;;;40.17;11.38;;;9.00;99.90;;;;;;4855559;29;20492;-74
2021/12/17 05:04:32;;;;;;;36.15;10.40;;;9.00;99.90;;;;;;4874231;29;20495;-74
2021/12/17 05:06:58;;;;;;;39.10;11.02;;;9.00;99.90;;;;;;4872792;29;20041;-74
2021/12/17 05:09:36;;;;;;;42.47;13.23;;;9.00;99.90;;;;;;4844873;29;20044;-74
2021/12/17 05:22:59;;;;;;;42.13;11.63;;;9.00;99.90;;;;;;4871769;29;20497;-74
2021/12/17 05:25:27;;;;;;;41.08;11.65;;;9.10;99.90;;;;;;4857541;29;20041;-74
2021/12/17 05:28:00;;;;;;;51.20;13.07;;;9.10;99.90;;;;;;4858271;29;20040;-74
2021/12/17 05:30:28;;;;;;;38.65;12.57;;;9.10;99.90;;;;;;4852513;29;20047;-74
2021/12/17 05:32:55;;;;;;;48.53;13.25;;;9.00;99.90;;;;;;4856554;29;20069;-73
2021/12/17 05:35:22;;;;;;;54.13;16.13;;;9.10;99.90;;;;;;4890830;29;20045;-73
2021/12/17 05:37:50;;;;;;;49.25;14.68;;;9.10;99.90;;;;;;4870845;29;20598;-73
2021/12/17 05:40:16;;;;;;;57.60;17.55;;;9.00;99.90;;;;;;4858032;29;20374;-73
2021/12/17 05:42:47;;;;;;;51.95;17.23;;;9.00;99.90;;;;;;4854427;29;20068;-73
2021/12/17 05:45:34;;;;;;;55.30;16.48;;;9.00;99.90;;;;;;4855152;29;20037;-73
2021/12/17 05:48:05;;;;;;;55.70;16.75;;;9.00;99.90;;;;;;4842892;29;20055;-73
2021/12/17 05:50:35;;;;;;;57.50;16.50;;;9.00;99.90;;;;;;4852199;29;20043;-74
2021/12/17 05:53:02;;;;;;;57.88;17.08;;;9.00;99.90;;;;;;4889950;29;20047;-74
2021/12/17 05:55:29;;;;;;;43.47;13.45;;;9.10;99.90;;;;;;4867308;29;20037;-73
2021/12/17 05:57:55;;;;;;;47.20;14.82;;;9.00;99.90;;;;;;4856216;29;20056;-73
2021/12/17 06:00:23;;;;;;;51.28;16.65;;;9.10;99.90;;;;;;4841701;29;20049;-73
2021/12/17 06:02:50;;;;;;;53.70;17.70;;;9.10;99.90;;;;;;4884350;29;20036;-73
2021/12/17 06:05:34;;;;;;;45.55;14.25;;;9.10;99.90;;;;;;4852919;29;20036;-73
2021/12/17 06:08:02;;;;;;;43.90;13.98;;;9.10;99.90;;;;;;4870580;29;20404;-73
2021/12/17 06:10:28;;;;;;;46.25;15.23;;;9.00;99.90;;;;;;4853110;29;20397;-73
2021/12/17 06:12:55;;;;;;;44.60;14.20;;;9.10;99.90;;;;;;4838984;29;20033;-73
2021/12/17 06:15:23;;;;;;;48.17;15.25;;;9.00;99.90;;;;;;4872691;29;20060;-73
2021/12/17 06:17:51;;;;;;;45.35;14.70;;;9.10;99.90;;;;;;4855186;29;20037;-73
2021/12/17 06:20:19;;;;;;;55.42;17.27;;;9.00;99.90;;;;;;4852079;29;20392;-73
2021/12/17 06:22:48;;;;;;;52.55;15.48;;;9.00;99.90;;;;;;4855741;29;20052;-74
2021/12/17 06:25:16;;;;;;;49.45;14.18;;;9.00;99.90;;;;;;4872198;29;20492;-74
2021/12/17 06:27:44;;;;;;;48.08;13.05;;;9.10;99.90;;;;;;4884589;29;20044;-73
2021/12/17 06:30:14;;;;;;;43.85;12.95;;;9.10;99.90;;;;;;4854267;29;20044;-74
2021/12/17 06:32:42;;;;;;;42.20;12.77;;;9.10;99.90;;;;;;4852994;29;20065;-74
2021/12/17 06:35:10;;;;;;;45.45;13.88;;;9.10;99.90;;;;;;4839768;29;20048;-74
2021/12/17 06:37:39;;;;;;;49.15;12.70;;;9.10;99.90;;;;;;4853641;29;20397;-73
2021/12/17 06:40:06;;;;;;;44.45;14.55;;;9.10;99.90;;;;;;4852942;29;20036;-73
2021/12/17 06:42:33;;;;;;;57.95;12.95;;;9.10;99.90;;;;;;4877680;29;20067;-73
2021/12/17 06:45:05;;;;;;;46.45;13.20;;;9.10;99.90;;;;;;4892053;29;20035;-73
2021/12/17 06:47:34;;;;;;;52.20;12.50;;;9.20;99.90;;;;;;4875211;29;20044;-73
2021/12/17 06:59:04;;;;;;;48.75;13.90;;;9.10;99.90;;;;;;4857028;29;20063;-73
2021/12/17 07:22:46;;;;;;;32.17;10.18;;;9.10;99.90;;;;;;4869846;29;20044;-73
2021/12/17 07:28:10;;;;;;;27.67;10.00;;;9.00;99.90;;;;;;4891127;29;20040;-74
2021/12/17 07:33:43;;;;;;;24.42;8.52;;;9.00;99.90;;;;;;4891024;29;20391;-73
2021/12/17 07:36:39;;;;;;;23.33;7.85;;;9.00;99.90;;;;;;4863015;29;20051;-73
2021/12/17 07:39:07;;;;;;;21.83;7.63;;;9.00;99.90;;;;;;4872945;29;20028;-73
2021/12/17 07:41:48;;;;;;;22.23;7.40;;;9.00;99.90;;;;;;4872174;29;20463;-73
2021/12/17 07:44:47;;;;;;;22.65;8.50;;;9.00;99.90;;;;;;4825328;29;20523;-73
2021/12/17 07:47:30;;;;;;;22.38;8.25;;;8.90;99.90;;;;;;4843474;29;20044;-77
2021/12/17 07:50:15;;;;;;;21.52;7.82;;;9.00;99.90;;;;;;4867141;29;20044;-75
2021/12/17 07:52:55;;;;;;;23.55;7.60;;;9.00;99.90;;;;;;4869677;29;20048;-75
2021/12/17 07:55:22;;;;;;;23.00;7.30;;;9.00;99.90;;;;;;4871531;29;20048;-76
2021/12/17 07:57:48;;;;;;;20.98;7.25;;;9.00;99.90;;;;;;4869443;29;20029;-76
2021/12/17 08:00:20;;;;;;;23.58;7.38;;;9.00;99.90;;;;;;4822687;29;20523;-76
2021/12/17 08:02:49;;;;;;;17.40;6.38;;;9.00;99.90;;;;;;4837200;29;20041;-76
2021/12/17 08:05:45;;;;;;;30.10;9.05;;;9.00;99.90;;;;;;4863773;29;20044;-76
2021/12/17 08:08:12;;;;;;;26.17;8.73;;;9.00;99.90;;;;;;4841457;29;20059;-75
2021/12/17 08:10:40;;;;;;;24.92;7.55;;;9.00;99.90;;;;;;4868765;29;20040;-75
2021/12/17 08:13:12;;;;;;;17.70;5.85;;;9.00;99.90;;;;;;4867081;29;20052;-75
2021/12/17 08:15:46;;;;;;;21.13;7.10;;;9.00;99.90;;;;;;4871471;29;20044;-74
2021/12/17 08:18:31;;;;;;;17.48;6.75;;;9.00;99.90;;;;;;4854635;29;20135;-76
2021/12/17 08:31:34;;;;;;;23.20;9.23;;;9.00;99.90;;;;;;4869697;29;20358;-75
2021/12/17 08:34:02;;;;;;;26.02;8.70;;;9.00;99.90;;;;;;4859335;29;20040;-74
2021/12/17 08:36:30;;;;;;;20.10;8.13;;;9.00;99.90;;;;;;4870971;29;20040;-74
2021/12/17 08:38:59;;;;;;;21.27;8.70;;;8.90;99.90;;;;;;4864853;29;20069;-74
2021/12/17 08:41:29;;;;;;;20.63;7.90;;;9.00;99.90;;;;;;4852761;29;20052;-74
2021/12/17 08:43:56;;;;;;;21.33;7.78;;;8.90;99.90;;;;;;4868059;29;20032;-74
2021/12/17 08:46:24;;;;;;;16.58;6.50;;;8.90;99.90;;;;;;4881312;29;20032;-74
2021/12/17 08:49:12;;;;;;;19.50;7.30;;;8.90;99.90;;;;;;4866735;29;20039;-75
2021/12/17 08:51:59;;;;;;;18.15;6.95;;;8.90;99.90;;;;;;4900496;29;20044;-75
2021/12/17 08:54:26;;;;;;;21.52;8.45;;;9.00;99.90;;;;;;4904087;29;20043;-74
2021/12/17 08:56:52;;;;;;;18.48;7.35;;;8.90;99.90;;;;;;4864133;29;20040;-76
2021/12/17 08:59:24;;;;;;;16.85;6.70;;;8.90;99.90;;;;;;4863576;29;20044;-75
2021/12/17 09:02:14;;;;;;;21.27;7.68;;;9.00;99.90;;;;;;4860177;29;20048;-74
2021/12/17 09:04:48;;;;;;;15.43;7.25;;;8.90;99.90;;;;;;4868866;29;20052;-74
2021/12/17 09:07:17;;;;;;;13.20;5.57;;;8.90;99.90;;;;;;4884505;29;20591;-74
2021/12/17 09:09:47;;;;;;;16.48;5.57;;;8.90;99.90;;;;;;4863415;29;22027;-75
2021/12/17 09:12:22;;;;;;;14.75;6.70;;;8.90;99.90;;;;;;4879519;29;20040;-74
2021/12/17 09:14:51;;;;;;;15.20;5.68;;;8.90;99.90;;;;;;4884433;29;20032;-74
2021/12/17 09:17:38;;;;;;;14.02;6.43;;;8.90;99.90;;;;;;4857216;29;20216;-74
2021/12/17 09:20:07;;;;;;;11.07;5.82;;;8.90;99.90;;;;;;4880049;29;20503;-74
2021/12/17 09:22:35;;;;;;;11.43;5.75;;;9.00;99.90;;;;;;4878527;29;20036;-74
2021/12/17 09:25:05;;;;;;;11.57;5.30;;;9.00;99.90;;;;;;4880388;29;20032;-73
2021/12/17 09:27:51;;;;;;;7.57;3.95;;;9.00;99.90;;;;;;4871652;29;20063;-74
2021/12/17 09:30:28;;;;;;;6.20;3.33;;;9.00;99.90;;;;;;4899754;29;20040;-73
2021/12/17 09:32:54;;;;;;;6.90;3.50;;;9.00;99.90;;;;;;4901992;29;20412;-73
2021/12/17 09:35:21;;;;;;;6.20;3.30;;;9.00;99.90;;;;;;4907831;29;20037;-74
2021/12/17 09:37:47;;;;;;;7.68;3.67;;;9.00;99.90;;;;;;4885298;29;20032;-73
2021/12/17 09:40:14;;;;;;;6.68;3.33;;;8.90;99.90;;;;;;4881928;29;20048;-74
2021/12/17 09:42:43;;;;;;;8.13;4.40;;;8.90;99.90;;;;;;4883458;29;20052;-74
2021/12/17 09:45:09;;;;;;;7.88;4.18;;;8.90;99.90;;;;;;4899942;29;20052;-74
2021/12/17 09:47:36;;;;;;;6.55;3.92;;;8.90;99.90;;;;;;4886468;29;20068;-73
2021/12/17 09:50:03;;;;;;;10.00;4.35;;;8.80;99.90;;;;;;4881828;29;20040;-74
2021/12/17 09:52:30;;;;;;;8.25;4.18;;;8.90;99.90;;;;;;4885596;29;20040;-74
2021/12/17 09:54:57;;;;;;;6.80;3.30;;;8.90;99.90;;;;;;4903176;29;20045;-74
2021/12/17 09:57:25;;;;;;;6.50;3.95;;;8.90;99.90;;;;;;4886860;29;20043;-74
2021/12/17 09:59:53;;;;;;;6.35;3.20;;;8.90;99.90;;;;;;4897639;29;20044;-73
2021/12/17 10:02:20;;;;;;;6.55;3.00;;;8.90;99.90;;;;;;4885071;29;20059;-74
2021/12/17 10:04:47;;;;;;;4.53;2.78;;;8.90;99.90;;;;;;4880209;29;20045;-74
2021/12/17 10:07:28;;;;;;;3.55;2.45;;;9.00;99.90;;;;;;4903266;29;20032;-74
2021/12/17 10:10:00;;;;;;;5.10;2.67;;;9.00;99.90;;;;;;4882261;29;20043;-75
2021/12/17 10:12:26;;;;;;;6.32;2.85;;;9.00;99.90;;;;;;4866399;29;20412;-74
2021/12/17 10:15:09;;;;;;;5.20;2.58;;;9.00;99.90;;;;;;4883859;29;20051;-74
2021/12/17 10:17:37;;;;;;;4.40;2.15;;;9.00;99.90;;;;;;4902902;29;20044;-74
2021/12/17 10:20:06;;;;;;;4.88;2.53;;;9.00;99.90;;;;;;4897752;29;20041;-76
2021/12/17 10:22:33;;;;;;;7.07;3.05;;;9.00;99.90;;;;;;4874541;29;20040;-75
2021/12/17 10:25:09;;;;;;;3.85;2.38;;;9.10;99.90;;;;;;4901245;29;20040;-74
2021/12/17 10:27:38;;;;;;;4.53;2.60;;;9.20;99.90;;;;;;4901189;29;20021;-74
2021/12/17 10:30:18;;;;;;;5.95;2.63;;;9.20;99.90;;;;;;4896993;29;20392;-74
2021/12/17 10:32:48;;;;;;;5.32;2.63;;;9.20;99.90;;;;;;4867527;29;20504;-75
2021/12/17 10:35:17;;;;;;;6.20;2.53;;;9.30;99.90;;;;;;4886726;29;20048;-74
2021/12/17 10:37:51;;;;;;;6.47;2.65;;;9.20;99.90;;;;;;4869293;29;20036;-75
2021/12/17 10:40:25;;;;;;;6.05;2.03;;;9.30;99.90;;;;;;4898302;29;20040;-74
2021/12/17 10:43:06;;;;;;;6.30;2.70;;;9.30;99.90;;;;;;4896590;29;20056;-74
2021/12/17 10:45:36;;;;;;;6.88;2.90;;;9.30;99.90;;;;;;4879810;29;20045;-74
2021/12/17 10:48:33;;;;;;;6.05;2.85;;;9.30;99.90;;;;;;4903652;29;20514;-75
2021/12/17 10:51:14;;;;;;;4.88;2.15;;;9.30;99.90;;;;;;4896489;29;20564;-75
2021/12/17 10:53:45;;;;;;;14.10;8.63;;;9.30;99.90;;;;;;4881058;29;20032;-75
2021/12/17 10:56:16;;;;;;;7.97;3.97;;;9.30;99.90;;;;;;4882936;29;20045;-75
2021/12/17 10:59:05;;;;;;;6.72;3.40;;;9.40;99.90;;;;;;4897480;29;20037;-75
2021/12/17 11:01:49;;;;;;;6.15;3.05;;;9.40;99.90;;;;;;4864919;29;20159;-75
2021/12/17 11:04:19;;;;;;;5.25;2.55;;;9.40;99.90;;;;;;4864569;29;20040;-75
2021/12/17 11:07:12;;;;;;;4.45;1.90;;;9.40;99.90;;;;;;4882086;29;20489;-75
2021/12/17 11:09:50;;;;;;;7.93;2.70;;;9.40;99.90;;;;;;4876224;29;20036;-75
2021/12/17 11:12:41;;;;;;;7.07;2.10;;;9.40;99.90;;;;;;4865289;29;20024;-75
2021/12/17 11:15:21;;;;;;;6.63;2.42;;;9.40;99.90;;;;;;4880613;29;20033;-75
2021/12/17 11:17:59;;;;;;;5.40;2.50;;;9.50;99.90;;;;;;4881541;29;20508;-75
2021/12/17 11:20:34;;;;;;;5.38;2.55;;;9.40;99.90;;;;;;4877028;29;20389;-75
2021/12/17 11:23:06;;;;;;;4.85;2.33;;;9.40;99.90;;;;;;4900282;29;20041;-75
2021/12/17 11:25:34;;;;;;;4.07;2.10;;;9.40;99.90;;;;;;4880621;29;20039;-74
2021/12/17 11:28:00;;;;;;;5.25;1.90;;;9.40;99.90;;;;;;4904364;29;20398;-74
2021/12/17 11:30:29;;;;;;;4.18;1.90;;;9.40;99.90;;;;;;4878986;29;20048;-74
2021/12/17 11:33:01;;;;;;;4.68;2.50;;;9.40;99.90;;;;;;4897636;29;20040;-75
2021/12/17 11:35:29;;;;;;;3.45;1.35;;;9.40;99.90;;;;;;4880474;29;20036;-74
2021/12/17 11:38:04;;;;;;;3.20;1.45;;;9.30;99.90;;;;;;4901582;29;20040;-74
2021/12/17 11:40:43;;;;;;;3.30;1.30;;;9.30;99.90;;;;;;4894844;29;20396;-75
2021/12/17 11:43:23;;;;;;;3.17;1.17;;;9.20;99.90;;;;;;4894051;29;20075;-75
2021/12/17 11:46:10;;;;;;;1.90;0.98;;;9.20;99.90;;;;;;4886242;29;20046;-75
2021/12/17 11:48:37;;;;;;;2.13;1.10;;;9.20;99.90;;;;;;4913234;29;20047;-75
2021/12/17 11:51:14;;;;;;;2.17;1.08;;;9.20;99.90;;;;;;4916970;29;20036;-75
2021/12/17 11:53:55;;;;;;;1.83;0.70;;;9.20;99.90;;;;;;4915233;29;20028;-74
2021/12/17 11:56:42;;;;;;;2.50;0.60;;;9.20;99.90;;;;;;4898980;29;20040;-75
2021/12/17 11:59:27;;;;;;;4.40;0.80;;;9.20;99.90;;;;;;4884372;29;20040;-76
2021/12/17 12:01:56;;;;;;;1.83;0.82;;;9.20;99.90;;;;;;4902460;29;20032;-75
2021/12/17 12:04:40;;;;;;;2.40;0.70;;;9.20;99.90;;;;;;4880470;29;20043;-75
2021/12/17 12:07:16;;;;;;;2.20;0.82;;;9.20;99.90;;;;;;4916359;29;20028;-75
2021/12/17 12:10:11;;;;;;;1.67;0.63;;;9.20;99.90;;;;;;4910527;29;20043;-75
2021/12/17 12:12:46;;;;;;;1.80;0.77;;;9.30;99.90;;;;;;4917461;29;20044;-75
2021/12/17 12:15:24;;;;;;;1.70;0.90;;;9.40;99.90;;;;;;4878178;29;20047;-75
2021/12/17 12:17:57;;;;;;;1.65;0.82;;;9.40;99.90;;;;;;4900877;29;20408;-77
2021/12/17 12:20:50;;;;;;;2.35;0.80;;;9.50;99.90;;;;;;4911640;29;20047;-75
2021/12/17 12:23:21;;;;;;;;;;;9.60;99.90;;;;;;4897403;29;20400;-75
2021/12/17 12:26:16;;;;;;;7.97;4.85;;;9.70;99.90;;;;;;4902751;29;19918;-75
2021/12/17 12:28:45;;;;;;;10.55;6.13;;;9.70;99.90;;;;;;4916305;29;20503;-75
2021/12/17 12:31:35;;;;;;;5.05;2.40;;;9.80;99.90;;;;;;4880618;29;20040;-76
2021/12/17 12:34:06;;;;;;;1.80;0.80;;;9.80;99.90;;;;;;4884387;29;20047;-74
2021/12/17 12:36:58;;;;;;;3.90;1.00;;;9.90;99.90;;;;;;4897427;29;20051;-74
2021/12/17 12:39:33;;;;;;;2.72;1.00;;;9.90;99.90;;;;;;4894561;29;20043;-75
2021/12/17 12:41:59;;;;;;;2.92;0.63;;;10.00;99.90;;;;;;4906211;29;20041;-76
2021/12/17 12:44:44;;;;;;;2.42;0.80;;;10.00;99.90;;;;;;4879761;29;20040;-77
2021/12/17 12:47:31;;;;;;;3.83;0.60;;;10.00;99.90;;;;;;4865965;29;20059;-76
2021/12/17 12:50:04;;;;;;;2.58;1.00;;;10.00;99.90;;;;;;4891930;29;20051;-76
2021/12/17 12:52:30;;;;;;;2.58;0.70;;;10.00;99.90;;;;;;4863565;29;20515;-75
2021/12/17 12:55:04;;;;;;;25.02;17.33;;;10.00;99.90;;;;;;4901245;29;20055;-75
2021/12/17 12:57:34;;;;;;;10.40;6.47;;;10.10;99.90;;;;;;4882651;29;20101;-75
2021/12/17 13:00:07;;;;;;;5.10;1.98;;;10.00;99.90;;;;;;4875903;29;20044;-76
2021/12/17 13:02:35;;;;;;;2.40;1.23;;;10.00;99.90;;;;;;4874976;29;20040;-75
2021/12/17 13:05:04;;;;;;;1.73;0.75;;;10.00;99.90;;;;;;4863323;29;20047;-75
2021/12/17 13:07:39;;;;;;;1.48;0.60;;;10.10;99.90;;;;;;4898801;29;20047;-75
2021/12/17 13:10:06;;;;;;;4.80;0.95;;;10.10;99.90;;;;;;4864762;29;20062;-75
2021/12/17 13:12:35;;;;;;;2.33;0.75;;;10.10;99.90;;;;;;4883242;29;20504;-75
2021/12/17 13:15:51;;;;;;;2.40;0.70;;;10.10;99.90;;;;;;4853242;29;20044;-75
2021/12/17 13:23:24;;;;;;;2.67;1.30;;;10.10;99.90;;;;;;4880195;29;20047;-75
2021/12/17 13:26:02;;;;;;;1.80;0.80;;;10.10;99.90;;;;;;4881812;29;20040;-75
2021/12/17 13:28:49;;;;;;;1.83;1.10;;;10.10;99.90;;;;;;4897564;29;20067;-76
2021/12/17 13:31:38;;;;;;;2.40;0.90;;;10.10;99.90;;;;;;4878600;29;20095;-75
2021/12/17 13:34:19;;;;;;;3.15;1.00;;;10.10;99.90;;;;;;4884063;29;20044;-75
2021/12/17 13:37:00;;;;;;;2.25;1.02;;;10.00;99.90;;;;;;4897843;29;20055;-75
2021/12/17 13:39:36;;;;;;;1.70;0.90;;;10.00;99.90;;;;;;4879085;29;20041;-76
2021/12/17 13:42:04;;;;;;;1.83;1.10;;;10.10;99.90;;;;;;4901511;29;20377;-76
2021/12/17 13:44:43;;;;;;;15.25;8.43;;;10.00;99.90;;;;;;4890682;29;20044;-75
2021/12/17 13:47:16;;;;;;;8.40;5.35;;;10.00;99.90;;;;;;4892368;29;20037;-75
2021/12/17 13:49:47;;;;;;;27.92;15.75;;;10.00;99.90;;;;;;4900255;29;20044;-76
2021/12/17 13:52:15;;;;;;;10.15;6.47;;;10.00;99.90;;;;;;4905468;29;20048;-77
2021/12/17 13:54:45;;;;;;;8.38;4.20;;;10.00;99.90;;;;;;4889833;29;20035;-76
2021/12/17 13:57:16;;;;;;;5.35;3.35;;;10.00;99.90;;;;;;4889685;29;20074;-76
2021/12/17 13:59:45;;;;;;;4.15;2.15;;;10.00;99.90;;;;;;4902042;29;20060;-76
2021/12/17 14:02:21;;;;;;;3.20;2.05;;;10.00;99.90;;;;;;4905670;29;20029;-76
2021/12/17 14:04:59;;;;;;;2.70;1.60;;;10.00;99.90;;;;;;4901685;29;20449;-77
2021/12/17 14:07:29;;;;;;;2.70;1.42;;;10.00;99.90;;;;;;4885199;29;20373;-76
2021/12/17 14:10:06;;;;;;;2.30;1.73;;;10.00;99.90;;;;;;4886461;29;20036;-75
2021/12/17 14:12:37;;;;;;;14.65;10.13;;;10.00;99.90;;;;;;4883457;29;20051;-75
2021/12/17 14:15:07;;;;;;;10.75;7.13;;;10.00;99.90;;;;;;4897105;29;20365;-75
2021/12/17 14:17:43;;;;;;;10.18;6.50;;;10.00;99.90;;;;;;4896787;29;20048;-75
2021/12/17 14:20:14;;;;;;;16.55;11.00;;;10.00;99.90;;;;;;4879862;29;20056;-75
2021/12/17 14:22:46;;;;;;;5.55;3.55;;;10.00;99.90;;;;;;4899567;29;20029;-75
2021/12/17 14:25:39;;;;;;;4.40;2.47;;;10.00;99.90;;;;;;4886608;29;20029;-75
2021/12/17 14:28:11;;;;;;;6.65;3.88;;;9.90;99.90;;;;;;4901572;29;20043;-75
2021/12/17 14:30:39;;;;;;;10.48;6.65;;;9.90;99.90;;;;;;4899899;29;20055;-75
2021/12/17 14:33:13;;;;;;;8.48;5.90;;;9.90;99.90;;;;;;4882695;29;20818;-75
2021/12/17 14:35:40;;;;;;;34.42;23.25;;;9.90;99.90;;;;;;4885294;29;20510;-75
2021/12/17 14:38:06;;;;;;;18.40;12.73;;;9.90;99.90;;;;;;4882250;29;20063;-75
2021/12/17 14:40:43;;;;;;;9.15;5.60;;;9.90;99.90;;;;;;4898389;29;20040;-75
2021/12/17 14:43:25;;;;;;;5.20;3.55;;;9.90;99.90;;;;;;4888825;29;20044;-75
2021/12/17 14:48:59;;;;;;;8.32;3.10;;;9.80;99.90;;;;;;4905536;29;20040;-75
2021/12/17 14:57:51;;;;;;;4.28;2.25;;;9.80;99.90;;;;;;4819781;29;20073;-75
2021/12/17 15:00:26;;;;;;;2.58;1.85;;;9.70;99.90;;;;;;4829813;29;20046;-75
2021/12/17 15:03:20;;;;;;;2.65;1.98;;;9.80;99.90;;;;;;4872647;29;20048;-76
2021/12/17 15:05:47;;;;;;;4.72;2.65;;;9.80;99.90;;;;;;4879542;29;20044;-76
2021/12/17 15:08:13;;;;;;;5.55;2.95;;;9.80;99.90;;;;;;4873467;29;20039;-75
2021/12/17 15:10:40;;;;;;;3.70;3.22;;;9.70;99.90;;;;;;4906658;29;20040;-76
2021/12/17 15:13:06;;;;;;;5.65;3.10;;;9.70;99.90;;;;;;4863735;29;20045;-75
2021/12/17 15:15:36;;;;;;;4.28;3.38;;;9.70;99.90;;;;;;4890294;29;20059;-75
2021/12/17 15:18:15;;;;;;;5.57;3.13;;;9.70;99.90;;;;;;4890693;29;20392;-75
2021/12/17 15:20:50;;;;;;;5.32;4.10;;;9.60;99.90;;;;;;4906760;29;20040;-75
2021/12/17 15:23:18;;;;;;;6.20;3.97;;;9.60;99.90;;;;;;4875252;29;20043;-75
2021/12/17 15:25:45;;;;;;;6.43;3.92;;;9.60;99.90;;;;;;4890194;29;20051;-75
2021/12/17 15:28:15;;;;;;;4.90;4.10;;;9.60;99.90;;;;;;4890996;29;20352;-75
2021/12/17 15:30:45;;;;;;;3.60;2.63;;;9.60;99.90;;;;;;4905806;29;20036;-76
2021/12/17 15:33:12;;;;;;;5.03;3.08;;;9.60;99.90;;;;;;4891687;29;20404;-75
2021/12/17 15:35:40;;;;;;;4.50;2.92;;;9.60;99.90;;;;;;4889271;29;20051;-76
2021/12/17 15:38:08;;;;;;;5.47;3.78;;;9.60;99.90;;;;;;4911969;29;20416;-75
2021/12/17 15:40:36;;;;;;;3.80;2.95;;;9.70;99.90;;;;;;4885466;29;20052;-75
2021/12/17 15:43:03;;;;;;;5.18;3.22;;;9.60;99.90;;;;;;4907028;29;20051;-76
2021/12/17 15:45:34;;;;;;;5.45;4.13;;;9.60;99.90;;;;;;4872306;29;20044;-75
2021/12/17 15:48:01;;;;;;;7.70;4.65;;;9.60;99.90;;;;;;4854027;29;20048;-75
2021/12/17 15:50:28;;;;;;;9.57;6.95;;;9.60;99.90;;;;;;4867411;29;20051;-76
2021/12/17 15:52:54;;;;;;;26.35;16.05;;;9.60;99.90;;;;;;4878551;29;20041;-77
2021/12/17 15:55:26;;;;;;;9.50;7.75;;;9.60;99.90;;;;;;4900202;29;20028;-76
2021/12/17 15:57:54;;;;;;;7.80;5.72;;;9.60;99.90;;;;;;4877634;29;20032;-76
2021/12/17 16:00:23;;;;;;;6.10;4.90;;;9.60;99.90;;;;;;4901959;29;20563;-76
2021/12/17 16:02:49;;;;;;;6.53;4.78;;;9.60;99.90;;;;;;4880978;29;20036;-76
2021/12/17 16:05:17;;;;;;;4.95;3.92;;;9.60;99.90;;;;;;4901282;29;20036;-76
2021/12/17 16:07:45;;;;;;;4.78;3.72;;;9.60;99.90;;;;;;4870363;29;20510;-75
2021/12/17 16:21:06;;;;;;;7.22;4.85;;;9.50;99.90;;;;;;4879971;29;20051;-75
2021/12/17 16:23:39;;;;;;;5.40;4.05;;;9.50;99.90;;;;;;4881426;29;20392;-75